Wetterdaten der Wetterstation 31177 Harsum

Letzte Wetterlage 27.04.2015 10:36
Wetterdiagramm
Tabellarische Darstellung
Datum Temperatur Windchill Feuchte Luftdruck Windrichtung Windstärke Niederschlag
27.04.2015 10:36 9,5 °C 9,5 °C 97 % 1003,1 hPa 225 0.5 1,0 l/m²
27.04.2015 10:16 9,5 °C 9,5 °C 97 % 1003,1 hPa 203 0.3 0 l/m²
27.04.2015 09:55 9,6 °C 9,6 °C 98 % 1003,1 hPa 248 0.0 0 l/m²
27.04.2015 09:35 9,7 °C 9,7 °C 98 % 1002,1 hPa 158 0.0 0 l/m²
27.04.2015 09:14 9,2 °C 9,2 °C 98 % 1002,1 hPa 270 0.5 1,0 l/m²
27.04.2015 08:53 9,2 °C 9,2 °C 97 % 1002,1 hPa 180 0.7 2,1 l/m²
27.04.2015 08:32 9,4 °C 9,4 °C 98 % 1002,1 hPa 203 0.1 1,1 l/m²
27.04.2015 08:11 9,6 °C 9,6 °C 97 % 1001,1 hPa 180 0.0 1,1 l/m²
27.04.2015 07:50 9,9 °C 9,9 °C 98 % 1001,1 hPa 203 0.5 0 l/m²
27.04.2015 07:29 10,0 °C 10,0 °C 97 % 1001,1 hPa 135 0.0 0 l/m²
27.04.2015 07:09 10,1 °C 10,1 °C 97 % 1002,1 hPa 135 0.0 1,2 l/m²
27.04.2015 06:48 10,2 °C 10,2 °C 97 % 1001,1 hPa 248 0.0 1,2 l/m²
27.04.2015 06:27 10,4 °C 10,4 °C 97 % 1001,1 hPa 135 0.0 1,2 l/m²
27.04.2015 06:07 10,8 °C 10,8 °C 97 % 1001,1 hPa 203 0.0 1,0 l/m²
27.04.2015 05:46 11,0 °C 11,0 °C 97 % 1001,1 hPa 90 0.4 1,0 l/m²
27.04.2015 05:25 11,1 °C 11,1 °C 97 % 1001,1 hPa 90 0.0 1,1 l/m²
27.04.2015 05:04 11,2 °C 11,2 °C 95 % 1001,1 hPa 315 0.1 3,1 l/m²
27.04.2015 04:44 11,2 °C 11,2 °C 94 % 1001,1 hPa 23 0.5 3,0 l/m²
27.04.2015 04:23 11,4 °C 11,4 °C 94 % 1001,1 hPa 23 0.8 2,0 l/m²
27.04.2015 04:02 11,4 °C 11,4 °C 94 % 1001,1 hPa 68 0.0 1,0 l/m²
27.04.2015 03:41 11,3 °C 11,3 °C 93 % 1001,1 hPa 68 0.0 0 l/m²
27.04.2015 03:21 11,3 °C 11,3 °C 93 % 1001,1 hPa 68 0.1 0 l/m²
27.04.2015 03:01 11,2 °C 11,2 °C 92 % 1002,1 hPa 68 0.0 0 l/m²
27.04.2015 02:40 11,2 °C 11,2 °C 92 % 1002,1 hPa 68 0.0 0 l/m²
27.04.2015 02:19 11,3 °C 11,3 °C 91 % 1002,1 hPa 68 0.0 0 l/m²
Neue Wetterwarnung

Neue Niederschlagsmeldung
Neue Meldung
Regen Liveticker
    sehr starker Regen/Gewitter
    starker Regen/Gewitter
    mäßiger bis starker Regen
    mäßiger Regen
    leichter bis mäßiger Regen
    kein Regen